sensor_id;sensor_type;location;lat;lon;timestamp;pressure;altitude;pressure_sealevel;temperature;humidity
28004;BME280;15330;51.234;6.754;2023-05-12T00:01:11;100875.28;;;14.13;100.00
28004;BME280;15330;51.234;6.754;2023-05-12T00:03:38;100884.66;;;14.17;100.00
28004;BME280;15330;51.234;6.754;2023-05-12T00:06:03;100879.00;;;14.26;100.00
28004;BME280;15330;51.234;6.754;2023-05-12T00:08:29;100876.97;;;14.14;100.00
28004;BME280;15330;51.234;6.754;2023-05-12T00:10:55;100872.06;;;14.17;100.00
28004;BME280;15330;51.234;6.754;2023-05-12T00:13:21;100874.19;;;14.22;100.00
28004;BME280;15330;51.234;6.754;2023-05-12T00:15:51;100876.13;;;14.13;100.00
28004;BME280;15330;51.234;6.754;2023-05-12T00:18:18;100870.56;;;14.00;100.00
28004;BME280;15330;51.234;6.754;2023-05-12T00:20:44;100870.84;;;14.05;100.00
28004;BME280;15330;51.234;6.754;2023-05-12T00:23:09;100855.31;;;13.92;100.00
28004;BME280;15330;51.234;6.754;2023-05-12T00:25:35;100857.94;;;13.86;100.00
28004;BME280;15330;51.234;6.754;2023-05-12T00:28:00;100854.97;;;13.95;100.00
28004;BME280;15330;51.234;6.754;2023-05-12T00:30:25;100861.94;;;14.05;100.00
28004;BME280;15330;51.234;6.754;2023-05-12T00:32:51;100855.53;;;14.06;100.00
28004;BME280;15330;51.234;6.754;2023-05-12T00:35:16;100860.72;;;14.07;100.00
28004;BME280;15330;51.234;6.754;2023-05-12T00:37:42;100857.03;;;14.08;100.00
28004;BME280;15330;51.234;6.754;2023-05-12T00:40:08;100853.13;;;13.96;100.00
28004;BME280;15330;51.234;6.754;2023-05-12T00:42:34;100847.09;;;14.09;100.00
28004;BME280;15330;51.234;6.754;2023-05-12T00:45:00;100854.22;;;14.02;100.00
28004;BME280;15330;51.234;6.754;2023-05-12T00:47:25;100844.50;;;14.01;100.00
28004;BME280;15330;51.234;6.754;2023-05-12T00:49:51;100841.59;;;14.02;100.00
28004;BME280;15330;51.234;6.754;2023-05-12T00:52:16;100843.28;;;13.88;100.00
28004;BME280;15330;51.234;6.754;2023-05-12T00:54:42;100840.22;;;13.91;100.00
28004;BME280;15330;51.234;6.754;2023-05-12T00:57:09;100845.78;;;13.90;100.00
28004;BME280;15330;51.234;6.754;2023-05-12T00:59:35;100834.84;;;13.91;100.00
28004;BME280;15330;51.234;6.754;2023-05-12T01:02:01;100839.75;;;14.03;100.00
28004;BME280;15330;51.234;6.754;2023-05-12T01:04:27;100829.09;;;13.94;100.00
28004;BME280;15330;51.234;6.754;2023-05-12T01:06:57;100835.97;;;13.97;100.00
28004;BME280;15330;51.234;6.754;2023-05-12T01:09:24;100828.25;;;13.79;100.00
28004;BME280;15330;51.234;6.754;2023-05-12T01:11:50;100831.03;;;13.86;100.00
28004;BME280;15330;51.234;6.754;2023-05-12T01:14:15;100831.97;;;13.78;100.00
28004;BME280;15330;51.234;6.754;2023-05-12T01:16:48;100831.09;;;13.63;100.00
28004;BME280;15330;51.234;6.754;2023-05-12T01:19:39;100830.56;;;13.68;100.00
28004;BME280;15330;51.234;6.754;2023-05-12T01:22:09;100829.09;;;13.80;100.00
28004;BME280;15330;51.234;6.754;2023-05-12T01:24:49;100823.41;;;13.75;100.00
28004;BME280;15330;51.234;6.754;2023-05-12T01:27:16;100825.09;;;13.76;100.00
28004;BME280;15330;51.234;6.754;2023-05-12T01:29:44;100817.81;;;13.62;100.00
28004;BME280;15330;51.234;6.754;2023-05-12T01:32:11;100814.56;;;13.51;100.00
28004;BME280;15330;51.234;6.754;2023-05-12T01:34:36;100813.09;;;13.49;100.00
28004;BME280;15330;51.234;6.754;2023-05-12T01:37:02;100810.78;;;13.60;100.00
28004;BME280;15330;51.234;6.754;2023-05-12T01:39:27;100814.13;;;13.63;100.00
28004;BME280;15330;51.234;6.754;2023-05-12T01:41:52;100820.50;;;13.47;100.00
28004;BME280;15330;51.234;6.754;2023-05-12T01:44:18;100825.75;;;13.40;100.00
28004;BME280;15330;51.234;6.754;2023-05-12T01:46:44;100830.59;;;13.45;100.00
28004;BME280;15330;51.234;6.754;2023-05-12T01:49:10;100832.94;;;13.48;100.00
28004;BME280;15330;51.234;6.754;2023-05-12T01:51:35;100834.69;;;13.55;100.00
28004;BME280;15330;51.234;6.754;2023-05-12T01:54:00;100818.97;;;13.67;100.00
28004;BME280;15330;51.234;6.754;2023-05-12T01:56:26;100807.72;;;13.49;100.00
28004;BME280;15330;51.234;6.754;2023-05-12T01:58:52;100807.69;;;13.34;100.00
28004;BME280;15330;51.234;6.754;2023-05-12T02:01:18;100809.13;;;13.22;100.00
28004;BME280;15330;51.234;6.754;2023-05-12T02:03:44;100814.41;;;13.30;100.00
28004;BME280;15330;51.234;6.754;2023-05-12T02:06:19;100819.53;;;13.40;100.00
28004;BME280;15330;51.234;6.754;2023-05-12T02:08:45;100819.16;;;13.28;100.00
28004;BME280;15330;51.234;6.754;2023-05-12T02:11:10;100817.00;;;13.23;100.00
28004;BME280;15330;51.234;6.754;2023-05-12T02:13:36;100813.31;;;13.25;100.00
28004;BME280;15330;51.234;6.754;2023-05-12T02:16:01;100815.84;;;13.41;100.00
28004;BME280;15330;51.234;6.754;2023-05-12T02:18:27;100797.47;;;13.30;100.00
28004;BME280;15330;51.234;6.754;2023-05-12T02:20:52;100797.78;;;13.35;100.00
28004;BME280;15330;51.234;6.754;2023-05-12T02:23:18;100798.84;;;13.26;100.00
28004;BME280;15330;51.234;6.754;2023-05-12T02:25:43;100788.69;;;12.90;100.00
28004;BME280;15330;51.234;6.754;2023-05-12T02:28:08;100794.00;;;12.75;100.00
28004;BME280;15330;51.234;6.754;2023-05-12T02:30:36;100799.97;;;12.85;100.00
28004;BME280;15330;51.234;6.754;2023-05-12T02:33:01;100799.84;;;13.02;100.00
28004;BME280;15330;51.234;6.754;2023-05-12T02:35:30;100814.94;;;13.03;100.00
28004;BME280;15330;51.234;6.754;2023-05-12T02:37:55;100809.75;;;13.01;100.00
28004;BME280;15330;51.234;6.754;2023-05-12T02:40:21;100816.31;;;12.99;100.00
28004;BME280;15330;51.234;6.754;2023-05-12T02:42:46;100823.47;;;13.14;100.00
28004;BME280;15330;51.234;6.754;2023-05-12T02:45:11;100815.16;;;13.24;100.00
28004;BME280;15330;51.234;6.754;2023-05-12T02:47:37;100819.63;;;13.32;100.00
28004;BME280;15330;51.234;6.754;2023-05-12T02:50:03;100820.63;;;13.31;100.00
28004;BME280;15330;51.234;6.754;2023-05-12T02:52:28;100821.59;;;13.38;100.00
28004;BME280;15330;51.234;6.754;2023-05-12T02:54:54;100828.81;;;13.14;100.00
28004;BME280;15330;51.234;6.754;2023-05-12T02:57:20;100825.44;;;13.12;100.00
28004;BME280;15330;51.234;6.754;2023-05-12T02:59:45;100821.28;;;13.33;100.00
28004;BME280;15330;51.234;6.754;2023-05-12T03:02:11;100823.63;;;13.36;100.00
28004;BME280;15330;51.234;6.754;2023-05-12T03:04:36;100828.16;;;13.35;100.00
28004;BME280;15330;51.234;6.754;2023-05-12T03:07:02;100829.91;;;13.28;100.00
28004;BME280;15330;51.234;6.754;2023-05-12T03:09:27;100825.13;;;13.38;100.00
28004;BME280;15330;51.234;6.754;2023-05-12T03:11:53;100827.72;;;13.46;100.00
28004;BME280;15330;51.234;6.754;2023-05-12T03:14:18;100815.56;;;13.50;100.00
28004;BME280;15330;51.234;6.754;2023-05-12T03:16:43;100816.25;;;13.52;100.00
28004;BME280;15330;51.234;6.754;2023-05-12T03:19:09;100820.59;;;13.53;100.00
28004;BME280;15330;51.234;6.754;2023-05-12T03:21:34;100830.59;;;13.45;100.00
28004;BME280;15330;51.234;6.754;2023-05-12T03:24:00;100832.66;;;13.57;100.00
28004;BME280;15330;51.234;6.754;2023-05-12T03:26:25;100826.34;;;13.50;100.00
28004;BME280;15330;51.234;6.754;2023-05-12T03:28:50;100825.00;;;13.32;100.00
28004;BME280;15330;51.234;6.754;2023-05-12T03:31:16;100823.88;;;13.26;100.00
28004;BME280;15330;51.234;6.754;2023-05-12T03:33:42;100828.59;;;13.24;100.00
28004;BME280;15330;51.234;6.754;2023-05-12T03:36:07;100838.84;;;13.20;100.00
28004;BME280;15330;51.234;6.754;2023-05-12T03:38:32;100834.97;;;13.23;100.00
28004;BME280;15330;51.234;6.754;2023-05-12T03:41:07;100822.19;;;13.25;100.00
28004;BME280;15330;51.234;6.754;2023-05-12T03:43:33;100821.94;;;13.12;100.00
28004;BME280;15330;51.234;6.754;2023-05-12T03:45:58;100825.88;;;13.01;100.00
28004;BME280;15330;51.234;6.754;2023-05-12T03:48:24;100830.41;;;13.01;100.00
28004;BME280;15330;51.234;6.754;2023-05-12T03:50:49;100814.44;;;13.07;100.00
28004;BME280;15330;51.234;6.754;2023-05-12T03:53:15;100817.09;;;13.30;100.00
28004;BME280;15330;51.234;6.754;2023-05-12T03:55:40;100834.78;;;13.25;100.00
28004;BME280;15330;51.234;6.754;2023-05-12T03:58:06;100825.06;;;13.23;100.00
28004;BME280;15330;51.234;6.754;2023-05-12T04:00:32;100839.38;;;13.39;100.00
28004;BME280;15330;51.234;6.754;2023-05-12T04:02:58;100830.34;;;13.32;100.00
28004;BME280;15330;51.234;6.754;2023-05-12T04:05:24;100841.88;;;13.40;100.00
28004;BME280;15330;51.234;6.754;2023-05-12T04:07:49;100838.06;;;13.35;100.00
28004;BME280;15330;51.234;6.754;2023-05-12T04:10:15;100834.81;;;13.39;100.00
28004;BME280;15330;51.234;6.754;2023-05-12T04:12:40;100838.94;;;13.50;100.00
28004;BME280;15330;51.234;6.754;2023-05-12T04:15:06;100840.81;;;13.49;100.00
28004;BME280;15330;51.234;6.754;2023-05-12T04:17:32;100847.22;;;13.26;100.00
28004;BME280;15330;51.234;6.754;2023-05-12T04:19:58;100848.88;;;13.27;100.00
28004;BME280;15330;51.234;6.754;2023-05-12T04:22:23;100852.00;;;13.53;100.00
28004;BME280;15330;51.234;6.754;2023-05-12T04:24:49;100849.00;;;13.71;100.00
28004;BME280;15330;51.234;6.754;2023-05-12T04:27:14;100848.13;;;13.55;100.00
28004;BME280;15330;51.234;6.754;2023-05-12T04:29:39;100857.00;;;13.79;100.00
28004;BME280;15330;51.234;6.754;2023-05-12T04:32:05;100865.84;;;13.65;100.00
28004;BME280;15330;51.234;6.754;2023-05-12T04:34:31;100856.03;;;13.57;100.00
28004;BME280;15330;51.234;6.754;2023-05-12T04:36:56;100865.69;;;13.66;100.00
28004;BME280;15330;51.234;6.754;2023-05-12T04:39:21;100864.69;;;13.82;100.00
28004;BME280;15330;51.234;6.754;2023-05-12T04:41:47;100865.47;;;13.90;100.00
28004;BME280;15330;51.234;6.754;2023-05-12T04:44:12;100882.97;;;13.49;100.00
28004;BME280;15330;51.234;6.754;2023-05-12T04:46:37;100869.81;;;13.54;100.00
28004;BME280;15330;51.234;6.754;2023-05-12T04:49:03;100877.34;;;13.58;100.00
28004;BME280;15330;51.234;6.754;2023-05-12T04:51:28;100887.38;;;13.42;100.00
28004;BME280;15330;51.234;6.754;2023-05-12T04:53:54;100886.88;;;13.61;100.00
28004;BME280;15330;51.234;6.754;2023-05-12T04:56:19;100894.44;;;13.43;100.00
28004;BME280;15330;51.234;6.754;2023-05-12T04:58:45;100894.66;;;13.56;100.00
28004;BME280;15330;51.234;6.754;2023-05-12T05:01:10;100908.59;;;13.59;100.00
28004;BME280;15330;51.234;6.754;2023-05-12T05:03:38;100912.22;;;13.44;100.00
28004;BME280;15330;51.234;6.754;2023-05-12T05:06:03;100912.47;;;13.94;100.00
28004;BME280;15330;51.234;6.754;2023-05-12T05:08:28;100924.34;;;13.63;100.00
28004;BME280;15330;51.234;6.754;2023-05-12T05:10:54;100923.28;;;13.49;100.00
28004;BME280;15330;51.234;6.754;2023-05-12T05:13:20;100930.38;;;13.42;100.00
28004;BME280;15330;51.234;6.754;2023-05-12T05:15:49;100936.41;;;13.44;100.00
28004;BME280;15330;51.234;6.754;2023-05-12T05:18:14;100938.16;;;13.37;100.00
28004;BME280;15330;51.234;6.754;2023-05-12T05:20:40;100941.91;;;13.28;100.00
28004;BME280;15330;51.234;6.754;2023-05-12T05:23:06;100939.72;;;13.23;100.00
28004;BME280;15330;51.234;6.754;2023-05-12T05:25:33;100943.09;;;13.25;100.00
28004;BME280;15330;51.234;6.754;2023-05-12T05:27:58;100943.63;;;13.43;100.00
28004;BME280;15330;51.234;6.754;2023-05-12T05:30:24;100945.81;;;13.40;100.00
28004;BME280;15330;51.234;6.754;2023-05-12T05:32:49;100947.28;;;13.19;100.00
28004;BME280;15330;51.234;6.754;2023-05-12T05:35:14;100947.81;;;13.46;100.00
28004;BME280;15330;51.234;6.754;2023-05-12T05:37:40;100958.56;;;13.46;100.00
28004;BME280;15330;51.234;6.754;2023-05-12T05:40:06;100958.97;;;13.35;100.00
28004;BME280;15330;51.234;6.754;2023-05-12T05:42:32;100958.38;;;13.25;100.00
28004;BME280;15330;51.234;6.754;2023-05-12T05:44:57;100969.56;;;13.36;100.00
28004;BME280;15330;51.234;6.754;2023-05-12T05:47:23;100963.16;;;13.37;100.00
28004;BME280;15330;51.234;6.754;2023-05-12T05:49:48;100969.25;;;13.77;100.00
28004;BME280;15330;51.234;6.754;2023-05-12T05:52:14;100973.56;;;13.63;100.00
28004;BME280;15330;51.234;6.754;2023-05-12T05:54:39;100981.28;;;13.66;100.00
28004;BME280;15330;51.234;6.754;2023-05-12T05:57:05;100982.22;;;13.73;100.00
28004;BME280;15330;51.234;6.754;2023-05-12T05:59:30;100983.72;;;13.76;100.00
28004;BME280;15330;51.234;6.754;2023-05-12T06:01:56;100986.91;;;13.79;100.00
28004;BME280;15330;51.234;6.754;2023-05-12T06:04:22;100990.03;;;13.83;100.00
28004;BME280;15330;51.234;6.754;2023-05-12T06:06:47;100993.50;;;13.91;100.00
28004;BME280;15330;51.234;6.754;2023-05-12T06:09:12;100988.59;;;13.95;100.00
28004;BME280;15330;51.234;6.754;2023-05-12T06:11:39;100998.59;;;14.24;100.00
28004;BME280;15330;51.234;6.754;2023-05-12T06:14:05;101008.25;;;13.95;100.00
28004;BME280;15330;51.234;6.754;2023-05-12T06:16:30;101006.41;;;14.33;100.00
28004;BME280;15330;51.234;6.754;2023-05-12T06:18:55;101013.44;;;14.20;100.00
28004;BME280;15330;51.234;6.754;2023-05-12T06:21:21;101010.97;;;13.95;100.00
28004;BME280;15330;51.234;6.754;2023-05-12T06:23:46;101018.66;;;13.99;100.00
28004;BME280;15330;51.234;6.754;2023-05-12T06:26:12;101018.91;;;14.12;100.00
28004;BME280;15330;51.234;6.754;2023-05-12T06:28:37;101021.72;;;13.95;100.00
28004;BME280;15330;51.234;6.754;2023-05-12T06:31:06;101015.81;;;14.00;100.00
28004;BME280;15330;51.234;6.754;2023-05-12T06:33:32;101016.56;;;13.86;100.00
28004;BME280;15330;51.234;6.754;2023-05-12T06:35:57;100998.16;;;13.98;100.00
28004;BME280;15330;51.234;6.754;2023-05-12T06:38:23;101016.91;;;14.28;100.00
28004;BME280;15330;51.234;6.754;2023-05-12T06:40:48;101018.84;;;13.97;100.00
28004;BME280;15330;51.234;6.754;2023-05-12T06:43:14;101011.41;;;14.22;100.00
28004;BME280;15330;51.234;6.754;2023-05-12T06:45:39;101024.91;;;13.99;100.00
28004;BME280;15330;51.234;6.754;2023-05-12T06:48:05;101019.03;;;13.95;100.00
28004;BME280;15330;51.234;6.754;2023-05-12T06:50:30;101016.94;;;14.06;100.00
28004;BME280;15330;51.234;6.754;2023-05-12T06:52:56;101025.47;;;14.09;100.00
28004;BME280;15330;51.234;6.754;2023-05-12T06:55:21;101039.94;;;13.85;100.00
28004;BME280;15330;51.234;6.754;2023-05-12T06:57:47;101047.09;;;14.16;100.00
28004;BME280;15330;51.234;6.754;2023-05-12T07:00:13;101042.78;;;14.29;100.00
28004;BME280;15330;51.234;6.754;2023-05-12T07:02:38;101044.06;;;13.96;100.00
28004;BME280;15330;51.234;6.754;2023-05-12T07:05:04;101050.81;;;14.15;100.00
28004;BME280;15330;51.234;6.754;2023-05-12T07:07:29;101036.31;;;14.01;100.00
28004;BME280;15330;51.234;6.754;2023-05-12T07:09:55;101053.31;;;14.16;100.00
28004;BME280;15330;51.234;6.754;2023-05-12T07:12:21;101050.38;;;14.03;100.00
28004;BME280;15330;51.234;6.754;2023-05-12T07:14:46;101053.81;;;14.20;100.00
28004;BME280;15330;51.234;6.754;2023-05-12T07:17:12;101054.75;;;14.50;100.00
28004;BME280;15330;51.234;6.754;2023-05-12T07:19:37;101051.31;;;14.33;100.00
28004;BME280;15330;51.234;6.754;2023-05-12T07:22:04;101062.38;;;14.61;100.00
28004;BME280;15330;51.234;6.754;2023-05-12T07:24:29;101063.75;;;14.34;100.00
28004;BME280;15330;51.234;6.754;2023-05-12T07:26:55;101056.25;;;14.52;100.00
28004;BME280;15330;51.234;6.754;2023-05-12T07:29:21;101057.97;;;14.45;100.00
28004;BME280;15330;51.234;6.754;2023-05-12T07:31:46;101065.16;;;14.30;100.00
28004;BME280;15330;51.234;6.754;2023-05-12T07:34:12;101064.94;;;14.40;100.00
28004;BME280;15330;51.234;6.754;2023-05-12T07:36:37;101062.25;;;14.40;100.00
28004;BME280;15330;51.234;6.754;2023-05-12T07:39:03;101067.00;;;14.52;100.00
28004;BME280;15330;51.234;6.754;2023-05-12T07:41:28;101061.28;;;14.70;100.00
28004;BME280;15330;51.234;6.754;2023-05-12T07:43:53;101072.00;;;14.55;100.00
28004;BME280;15330;51.234;6.754;2023-05-12T07:46:19;101061.47;;;14.68;100.00
28004;BME280;15330;51.234;6.754;2023-05-12T07:48:44;101057.28;;;14.81;100.00
28004;BME280;15330;51.234;6.754;2023-05-12T07:51:10;101063.25;;;14.91;100.00
28004;BME280;15330;51.234;6.754;2023-05-12T07:53:35;101074.50;;;14.94;100.00
28004;BME280;15330;51.234;6.754;2023-05-12T07:56:01;101072.81;;;15.08;100.00
28004;BME280;15330;51.234;6.754;2023-05-12T07:58:26;101082.06;;;14.76;100.00
28004;BME280;15330;51.234;6.754;2023-05-12T08:00:51;101075.00;;;14.75;100.00
28004;BME280;15330;51.234;6.754;2023-05-12T08:03:18;101075.59;;;15.00;100.00
28004;BME280;15330;51.234;6.754;2023-05-12T08:05:44;101082.75;;;15.07;100.00
28004;BME280;15330;51.234;6.754;2023-05-12T08:08:09;101081.47;;;15.03;100.00
28004;BME280;15330;51.234;6.754;2023-05-12T08:10:43;101079.31;;;14.99;100.00
28004;BME280;15330;51.234;6.754;2023-05-12T08:13:09;101082.56;;;15.09;100.00
28004;BME280;15330;51.234;6.754;2023-05-12T08:15:34;101091.94;;;14.84;100.00
28004;BME280;15330;51.234;6.754;2023-05-12T08:18:00;101086.81;;;14.89;100.00
28004;BME280;15330;51.234;6.754;2023-05-12T08:20:25;101091.22;;;15.04;100.00
28004;BME280;15330;51.234;6.754;2023-05-12T08:22:51;101094.56;;;14.92;100.00
28004;BME280;15330;51.234;6.754;2023-05-12T08:25:16;101103.34;;;14.86;100.00
28004;BME280;15330;51.234;6.754;2023-05-12T08:27:41;101103.53;;;14.69;100.00
28004;BME280;15330;51.234;6.754;2023-05-12T08:30:07;101119.34;;;14.87;100.00
28004;BME280;15330;51.234;6.754;2023-05-12T08:32:33;101107.91;;;14.71;100.00
28004;BME280;15330;51.234;6.754;2023-05-12T08:34:59;101114.34;;;14.84;100.00
28004;BME280;15330;51.234;6.754;2023-05-12T08:37:25;101110.41;;;14.87;100.00
28004;BME280;15330;51.234;6.754;2023-05-12T08:39:51;101113.75;;;14.89;100.00
28004;BME280;15330;51.234;6.754;2023-05-12T08:45:04;101115.13;;;14.70;100.00
28004;BME280;15330;51.234;6.754;2023-05-12T08:47:32;101117.31;;;14.89;100.00
28004;BME280;15330;51.234;6.754;2023-05-12T08:50:00;101122.59;;;14.83;100.00
28004;BME280;15330;51.234;6.754;2023-05-12T08:52:31;101127.53;;;14.94;100.00
28004;BME280;15330;51.234;6.754;2023-05-12T08:54:57;101129.84;;;14.97;100.00
28004;BME280;15330;51.234;6.754;2023-05-12T08:57:23;101125.84;;;15.07;100.00
28004;BME280;15330;51.234;6.754;2023-05-12T08:59:52;101123.47;;;15.13;100.00
28004;BME280;15330;51.234;6.754;2023-05-12T09:02:20;101134.69;;;15.31;100.00
28004;BME280;15330;51.234;6.754;2023-05-12T09:04:46;101129.13;;;15.32;100.00
28004;BME280;15330;51.234;6.754;2023-05-12T09:07:13;101131.06;;;15.38;100.00
28004;BME280;15330;51.234;6.754;2023-05-12T09:09:41;101122.97;;;15.68;100.00
28004;BME280;15330;51.234;6.754;2023-05-12T09:12:11;101132.19;;;15.73;100.00
28004;BME280;15330;51.234;6.754;2023-05-12T09:14:37;101130.13;;;15.75;100.00
28004;BME280;15330;51.234;6.754;2023-05-12T09:17:05;101137.69;;;15.65;100.00
28004;BME280;15330;51.234;6.754;2023-05-12T09:19:31;101140.09;;;15.60;100.00
28004;BME280;15330;51.234;6.754;2023-05-12T09:21:57;101143.16;;;15.72;100.00
28004;BME280;15330;51.234;6.754;2023-05-12T09:24:36;101132.91;;;15.82;100.00
28004;BME280;15330;51.234;6.754;2023-05-12T09:27:03;101136.28;;;16.05;100.00
28004;BME280;15330;51.234;6.754;2023-05-12T09:29:29;101138.81;;;16.07;100.00
28004;BME280;15330;51.234;6.754;2023-05-12T09:31:56;101136.63;;;16.17;100.00
28004;BME280;15330;51.234;6.754;2023-05-12T09:34:32;101144.72;;;16.60;100.00
28004;BME280;15330;51.234;6.754;2023-05-12T09:37:06;101145.28;;;17.04;100.00
28004;BME280;15330;51.234;6.754;2023-05-12T09:39:32;101143.78;;;16.95;100.00
28004;BME280;15330;51.234;6.754;2023-05-12T09:41:58;101140.16;;;16.81;100.00
28004;BME280;15330;51.234;6.754;2023-05-12T09:44:24;101142.28;;;16.93;100.00
28004;BME280;15330;51.234;6.754;2023-05-12T09:46:50;101136.94;;;17.27;99.26
28004;BME280;15330;51.234;6.754;2023-05-12T09:49:24;101149.00;;;17.66;96.57
28004;BME280;15330;51.234;6.754;2023-05-12T09:51:57;101157.56;;;17.35;94.19
28004;BME280;15330;51.234;6.754;2023-05-12T09:54:30;101156.50;;;17.29;91.51
28004;BME280;15330;51.234;6.754;2023-05-12T09:57:01;101149.31;;;17.49;91.52
28004;BME280;15330;51.234;6.754;2023-05-12T09:59:33;101148.50;;;17.96;93.14
28004;BME280;15330;51.234;6.754;2023-05-12T10:02:00;101152.06;;;17.56;89.68
28004;BME280;15330;51.234;6.754;2023-05-12T10:04:27;101139.31;;;17.84;90.98
28004;BME280;15330;51.234;6.754;2023-05-12T10:06:54;101152.53;;;18.14;89.06
28004;BME280;15330;51.234;6.754;2023-05-12T10:09:26;101144.69;;;17.78;88.66
28004;BME280;15330;51.234;6.754;2023-05-12T10:11:53;101143.91;;;17.90;88.11
28004;BME280;15330;51.234;6.754;2023-05-12T10:14:21;101144.00;;;18.23;86.80
28004;BME280;15330;51.234;6.754;2023-05-12T10:16:46;101144.69;;;19.11;87.76
28004;BME280;15330;51.234;6.754;2023-05-12T10:19:14;101142.47;;;19.72;84.38
28004;BME280;15330;51.234;6.754;2023-05-12T10:21:41;101146.78;;;18.63;82.80
28004;BME280;15330;51.234;6.754;2023-05-12T10:24:11;101144.09;;;18.89;81.37
28004;BME280;15330;51.234;6.754;2023-05-12T10:26:38;101136.59;;;18.98;82.31
28004;BME280;15330;51.234;6.754;2023-05-12T10:29:05;101133.13;;;19.42;81.62
28004;BME280;15330;51.234;6.754;2023-05-12T10:31:31;101129.28;;;18.98;79.98
28004;BME280;15330;51.234;6.754;2023-05-12T10:34:01;101139.06;;;19.19;77.80
28004;BME280;15330;51.234;6.754;2023-05-12T10:36:26;101136.38;;;18.99;76.71
28004;BME280;15330;51.234;6.754;2023-05-12T10:38:53;101141.38;;;18.63;77.55
28004;BME280;15330;51.234;6.754;2023-05-12T10:41:33;101139.09;;;18.86;77.92
28004;BME280;15330;51.234;6.754;2023-05-12T10:43:59;101137.16;;;19.26;79.05
28004;BME280;15330;51.234;6.754;2023-05-12T10:46:25;101131.34;;;19.10;78.36
28004;BME280;15330;51.234;6.754;2023-05-12T10:48:59;101137.63;;;19.10;76.81
28004;BME280;15330;51.234;6.754;2023-05-12T10:51:29;101144.25;;;19.21;75.63
28004;BME280;15330;51.234;6.754;2023-05-12T10:54:06;101128.38;;;19.31;75.55
28004;BME280;15330;51.234;6.754;2023-05-12T10:59:12;101130.25;;;19.24;73.93
28004;BME280;15330;51.234;6.754;2023-05-12T11:01:42;101126.03;;;19.99;74.41
28004;BME280;15330;51.234;6.754;2023-05-12T11:04:13;101124.28;;;19.79;73.74
28004;BME280;15330;51.234;6.754;2023-05-12T11:06:39;101122.63;;;20.10;72.59
28004;BME280;15330;51.234;6.754;2023-05-12T11:09:05;101125.00;;;20.00;72.45
28004;BME280;15330;51.234;6.754;2023-05-12T11:11:32;101125.63;;;19.95;79.10
28004;BME280;15330;51.234;6.754;2023-05-12T11:13:58;101117.16;;;19.78;81.77
28004;BME280;15330;51.234;6.754;2023-05-12T11:16:24;101118.13;;;19.39;84.91
28004;BME280;15330;51.234;6.754;2023-05-12T11:19:03;101126.72;;;19.30;88.08
28004;BME280;15330;51.234;6.754;2023-05-12T11:21:30;101140.53;;;18.95;87.85
28004;BME280;15330;51.234;6.754;2023-05-12T11:23:56;101132.19;;;18.97;88.09
28004;BME280;15330;51.234;6.754;2023-05-12T11:26:21;101145.72;;;18.51;88.07
28004;BME280;15330;51.234;6.754;2023-05-12T11:28:47;101147.44;;;18.65;89.12
28004;BME280;15330;51.234;6.754;2023-05-12T11:31:20;101151.97;;;18.51;88.55
28004;BME280;15330;51.234;6.754;2023-05-12T11:33:46;101158.69;;;18.75;87.75
28004;BME280;15330;51.234;6.754;2023-05-12T11:36:12;101145.56;;;18.85;86.29
28004;BME280;15330;51.234;6.754;2023-05-12T11:38:38;101155.53;;;19.04;85.51
28004;BME280;15330;51.234;6.754;2023-05-12T11:41:03;101144.03;;;19.22;84.84
28004;BME280;15330;51.234;6.754;2023-05-12T11:43:29;101142.19;;;19.87;83.88
28004;BME280;15330;51.234;6.754;2023-05-12T11:45:54;101146.66;;;20.13;83.15
28004;BME280;15330;51.234;6.754;2023-05-12T11:48:20;101137.84;;;19.79;81.83
28004;BME280;15330;51.234;6.754;2023-05-12T11:50:46;101149.44;;;20.00;83.49
28004;BME280;15330;51.234;6.754;2023-05-12T11:53:16;101142.31;;;20.43;83.47
28004;BME280;15330;51.234;6.754;2023-05-12T11:55:47;101144.06;;;20.25;80.43
28004;BME280;15330;51.234;6.754;2023-05-12T11:58:20;101153.13;;;20.12;81.58
28004;BME280;15330;51.234;6.754;2023-05-12T12:00:47;101146.50;;;20.01;83.42
28004;BME280;15330;51.234;6.754;2023-05-12T12:03:14;101153.16;;;19.61;82.61
28004;BME280;15330;51.234;6.754;2023-05-12T12:05:43;101150.00;;;19.64;83.45
28004;BME280;15330;51.234;6.754;2023-05-12T12:08:14;101155.88;;;19.54;83.07
28004;BME280;15330;51.234;6.754;2023-05-12T12:10:46;101161.22;;;19.74;83.41
28004;BME280;15330;51.234;6.754;2023-05-12T12:13:24;101160.78;;;19.84;85.59
28004;BME280;15330;51.234;6.754;2023-05-12T12:15:50;101159.63;;;19.60;82.34
28004;BME280;15330;51.234;6.754;2023-05-12T12:18:16;101151.38;;;19.86;81.48
28004;BME280;15330;51.234;6.754;2023-05-12T12:20:43;101162.59;;;19.96;81.28
28004;BME280;15330;51.234;6.754;2023-05-12T12:23:09;101162.53;;;19.71;80.63
28004;BME280;15330;51.234;6.754;2023-05-12T12:25:34;101161.69;;;20.54;81.25
28004;BME280;15330;51.234;6.754;2023-05-12T12:28:00;101162.03;;;20.64;79.36
28004;BME280;15330;51.234;6.754;2023-05-12T12:30:26;101156.13;;;20.92;78.11
28004;BME280;15330;51.234;6.754;2023-05-12T12:32:52;101151.66;;;20.54;77.53
28004;BME280;15330;51.234;6.754;2023-05-12T12:35:17;101161.63;;;21.10;75.38
28004;BME280;15330;51.234;6.754;2023-05-12T12:37:44;101152.81;;;20.65;76.51
28004;BME280;15330;51.234;6.754;2023-05-12T12:40:15;101161.84;;;20.59;77.29
28004;BME280;15330;51.234;6.754;2023-05-12T12:42:40;101164.03;;;20.75;78.35
28004;BME280;15330;51.234;6.754;2023-05-12T12:45:06;101159.63;;;20.04;78.56